sensor_id;sensor_type;location;lat;lon;timestamp;pressure;altitude;pressure_sealevel;temperature;humidity
10992;BME280;5549;47.028;15.514;2023-06-10T00:00:22;96195.47;;;19.09;82.76
10992;BME280;5549;47.028;15.514;2023-06-10T00:02:50;96191.50;;;19.05;83.04
10992;BME280;5549;47.028;15.514;2023-06-10T00:05:17;96186.75;;;19.00;83.94
10992;BME280;5549;47.028;15.514;2023-06-10T00:07:49;96191.66;;;18.97;84.50
10992;BME280;5549;47.028;15.514;2023-06-10T00:10:17;96185.06;;;18.92;85.04
10992;BME280;5549;47.028;15.514;2023-06-10T00:12:46;96184.59;;;18.89;84.58
10992;BME280;5549;47.028;15.514;2023-06-10T00:15:16;96185.81;;;18.86;84.40
10992;BME280;5549;47.028;15.514;2023-06-10T00:17:44;96189.47;;;18.85;84.13
10992;BME280;5549;47.028;15.514;2023-06-10T00:20:12;96180.69;;;18.85;83.85
10992;BME280;5549;47.028;15.514;2023-06-10T00:22:40;96186.81;;;18.85;83.85
10992;BME280;5549;47.028;15.514;2023-06-10T00:25:11;96178.84;;;18.85;83.81
10992;BME280;5549;47.028;15.514;2023-06-10T00:27:39;96182.50;;;18.84;83.52
10992;BME280;5549;47.028;15.514;2023-06-10T00:30:11;96185.38;;;18.83;82.86
10992;BME280;5549;47.028;15.514;2023-06-10T00:32:41;96180.63;;;18.78;83.55
10992;BME280;5549;47.028;15.514;2023-06-10T00:35:11;96170.47;;;18.67;85.90
10992;BME280;5549;47.028;15.514;2023-06-10T00:37:40;96186.16;;;18.62;86.51
10992;BME280;5549;47.028;15.514;2023-06-10T00:40:09;96179.66;;;18.65;86.07
10992;BME280;5549;47.028;15.514;2023-06-10T00:42:37;96176.06;;;18.57;86.67
10992;BME280;5549;47.028;15.514;2023-06-10T00:45:06;96169.53;;;18.60;86.27
10992;BME280;5549;47.028;15.514;2023-06-10T00:47:35;96175.81;;;18.52;87.23
10992;BME280;5549;47.028;15.514;2023-06-10T00:50:07;96177.44;;;18.53;86.83
10992;BME280;5549;47.028;15.514;2023-06-10T00:52:36;96171.13;;;18.54;86.77
10992;BME280;5549;47.028;15.514;2023-06-10T00:55:06;96167.91;;;18.59;86.34
10992;BME280;5549;47.028;15.514;2023-06-10T00:57:34;96162.56;;;18.59;85.78
10992;BME280;5549;47.028;15.514;2023-06-10T01:00:07;96167.56;;;18.62;85.52
10992;BME280;5549;47.028;15.514;2023-06-10T01:02:38;96166.72;;;18.62;85.34
10992;BME280;5549;47.028;15.514;2023-06-10T01:05:06;96172.19;;;18.60;84.70
10992;BME280;5549;47.028;15.514;2023-06-10T01:07:43;96164.22;;;18.60;84.45
10992;BME280;5549;47.028;15.514;2023-06-10T01:10:19;96161.94;;;18.57;83.91
10992;BME280;5549;47.028;15.514;2023-06-10T01:12:55;96168.91;;;18.58;83.81
10992;BME280;5549;47.028;15.514;2023-06-10T01:15:23;96157.63;;;18.56;83.90
10992;BME280;5549;47.028;15.514;2023-06-10T01:18:01;96168.28;;;18.56;83.83
10992;BME280;5549;47.028;15.514;2023-06-10T01:20:31;96161.31;;;18.55;84.29
10992;BME280;5549;47.028;15.514;2023-06-10T01:23:01;96173.97;;;18.53;85.33
10992;BME280;5549;47.028;15.514;2023-06-10T01:25:30;96172.97;;;18.54;84.88
10992;BME280;5549;47.028;15.514;2023-06-10T01:28:06;96169.66;;;18.52;84.87
10992;BME280;5549;47.028;15.514;2023-06-10T01:30:41;96173.53;;;18.49;85.52
10992;BME280;5549;47.028;15.514;2023-06-10T01:33:13;96173.72;;;18.48;86.11
10992;BME280;5549;47.028;15.514;2023-06-10T01:35:45;96177.13;;;18.42;87.66
10992;BME280;5549;47.028;15.514;2023-06-10T01:38:16;96181.81;;;18.25;89.84
10992;BME280;5549;47.028;15.514;2023-06-10T01:40:46;96178.69;;;18.36;88.56
10992;BME280;5549;47.028;15.514;2023-06-10T01:43:17;96180.16;;;18.39;88.11
10992;BME280;5549;47.028;15.514;2023-06-10T01:45:45;96181.16;;;18.38;88.11
10992;BME280;5549;47.028;15.514;2023-06-10T01:48:16;96174.19;;;18.37;87.61
10992;BME280;5549;47.028;15.514;2023-06-10T01:50:43;96175.00;;;18.37;87.23
10992;BME280;5549;47.028;15.514;2023-06-10T01:53:11;96171.53;;;18.37;88.25
10992;BME280;5549;47.028;15.514;2023-06-10T01:55:40;96169.88;;;18.36;89.04
10992;BME280;5549;47.028;15.514;2023-06-10T01:58:08;96170.63;;;18.30;89.79
10992;BME280;5549;47.028;15.514;2023-06-10T02:00:36;96171.63;;;18.28;89.90
10992;BME280;5549;47.028;15.514;2023-06-10T02:03:03;96170.00;;;18.27;90.21
10992;BME280;5549;47.028;15.514;2023-06-10T02:05:33;96176.88;;;18.22;90.72
10992;BME280;5549;47.028;15.514;2023-06-10T02:08:03;96178.91;;;18.20;90.77
10992;BME280;5549;47.028;15.514;2023-06-10T02:10:31;96182.09;;;18.15;91.00
10992;BME280;5549;47.028;15.514;2023-06-10T02:13:00;96174.31;;;18.14;90.98
10992;BME280;5549;47.028;15.514;2023-06-10T02:15:27;96181.13;;;18.02;91.13
10992;BME280;5549;47.028;15.514;2023-06-10T02:17:55;96177.63;;;18.01;91.04
10992;BME280;5549;47.028;15.514;2023-06-10T02:20:24;96180.00;;;17.96;91.03
10992;BME280;5549;47.028;15.514;2023-06-10T02:22:54;96181.03;;;17.95;90.97
10992;BME280;5549;47.028;15.514;2023-06-10T02:25:21;96182.03;;;17.94;90.65
10992;BME280;5549;47.028;15.514;2023-06-10T02:27:49;96183.03;;;17.93;90.46
10992;BME280;5549;47.028;15.514;2023-06-10T02:30:20;96185.59;;;17.86;90.10
10992;BME280;5549;47.028;15.514;2023-06-10T02:32:50;96179.47;;;17.86;89.98
10992;BME280;5549;47.028;15.514;2023-06-10T02:35:20;96182.69;;;17.81;89.55
10992;BME280;5549;47.028;15.514;2023-06-10T02:37:50;96182.59;;;17.75;89.23
10992;BME280;5549;47.028;15.514;2023-06-10T02:40:18;96189.91;;;17.73;88.80
10992;BME280;5549;47.028;15.514;2023-06-10T02:42:47;96188.06;;;17.73;88.84
10992;BME280;5549;47.028;15.514;2023-06-10T02:45:15;96190.56;;;17.75;88.39
10992;BME280;5549;47.028;15.514;2023-06-10T02:47:44;96189.91;;;17.73;88.40
10992;BME280;5549;47.028;15.514;2023-06-10T02:50:14;96190.63;;;17.67;88.14
10992;BME280;5549;47.028;15.514;2023-06-10T02:52:43;96192.13;;;17.46;88.09
10992;BME280;5549;47.028;15.514;2023-06-10T02:55:14;96199.34;;;17.38;88.32
10992;BME280;5549;47.028;15.514;2023-06-10T02:57:44;96207.00;;;17.32;88.89
10992;BME280;5549;47.028;15.514;2023-06-10T03:00:13;96209.25;;;17.21;89.83
10992;BME280;5549;47.028;15.514;2023-06-10T03:02:41;96213.19;;;17.25;89.91
10992;BME280;5549;47.028;15.514;2023-06-10T03:05:10;96210.91;;;17.22;90.55
10992;BME280;5549;47.028;15.514;2023-06-10T03:07:41;96216.31;;;17.28;90.15
10992;BME280;5549;47.028;15.514;2023-06-10T03:10:09;96216.78;;;17.32;90.79
10992;BME280;5549;47.028;15.514;2023-06-10T03:12:39;96222.28;;;17.30;91.27
10992;BME280;5549;47.028;15.514;2023-06-10T03:15:09;96220.75;;;17.36;90.80
10992;BME280;5549;47.028;15.514;2023-06-10T03:17:37;96213.25;;;17.40;90.81
10992;BME280;5549;47.028;15.514;2023-06-10T03:20:09;96217.03;;;17.45;90.77
10992;BME280;5549;47.028;15.514;2023-06-10T03:22:38;96219.03;;;17.43;90.67
10992;BME280;5549;47.028;15.514;2023-06-10T03:25:09;96222.63;;;17.50;90.00
10992;BME280;5549;47.028;15.514;2023-06-10T03:27:42;96224.72;;;17.40;89.02
10992;BME280;5549;47.028;15.514;2023-06-10T03:30:12;96226.06;;;17.36;88.82
10992;BME280;5549;47.028;15.514;2023-06-10T03:32:43;96231.66;;;17.41;88.45
10992;BME280;5549;47.028;15.514;2023-06-10T03:35:14;96234.34;;;17.33;88.59
10992;BME280;5549;47.028;15.514;2023-06-10T03:37:42;96233.22;;;17.36;88.28
10992;BME280;5549;47.028;15.514;2023-06-10T03:40:10;96234.03;;;17.36;88.43
10992;BME280;5549;47.028;15.514;2023-06-10T03:42:39;96232.38;;;17.35;87.92
10992;BME280;5549;47.028;15.514;2023-06-10T03:45:08;96236.50;;;17.38;88.06
10992;BME280;5549;47.028;15.514;2023-06-10T03:47:38;96242.81;;;17.37;88.29
10992;BME280;5549;47.028;15.514;2023-06-10T03:50:10;96234.84;;;17.37;88.32
10992;BME280;5549;47.028;15.514;2023-06-10T03:52:39;96240.63;;;17.40;88.35
10992;BME280;5549;47.028;15.514;2023-06-10T03:55:09;96238.63;;;17.42;88.07
10992;BME280;5549;47.028;15.514;2023-06-10T03:57:42;96240.38;;;17.27;88.63
10992;BME280;5549;47.028;15.514;2023-06-10T04:00:11;96242.03;;;17.28;88.87
10992;BME280;5549;47.028;15.514;2023-06-10T04:02:39;96240.34;;;17.35;88.62
10992;BME280;5549;47.028;15.514;2023-06-10T04:05:12;96240.63;;;17.40;88.42
10992;BME280;5549;47.028;15.514;2023-06-10T04:07:44;96235.78;;;17.44;88.53
10992;BME280;5549;47.028;15.514;2023-06-10T04:10:12;96245.22;;;17.46;88.84
10992;BME280;5549;47.028;15.514;2023-06-10T04:12:39;96240.91;;;17.45;88.51
10992;BME280;5549;47.028;15.514;2023-06-10T04:15:08;96244.88;;;17.49;88.48
10992;BME280;5549;47.028;15.514;2023-06-10T04:17:36;96242.22;;;17.49;88.85
10992;BME280;5549;47.028;15.514;2023-06-10T04:20:07;96247.81;;;17.54;89.02
10992;BME280;5549;47.028;15.514;2023-06-10T04:22:35;96250.75;;;17.59;89.15
10992;BME280;5549;47.028;15.514;2023-06-10T04:25:05;96243.38;;;17.70;88.70
10992;BME280;5549;47.028;15.514;2023-06-10T04:27:33;96235.88;;;17.73;88.45
10992;BME280;5549;47.028;15.514;2023-06-10T04:30:01;96238.47;;;17.81;88.29
10992;BME280;5549;47.028;15.514;2023-06-10T04:32:29;96240.56;;;17.86;88.36
10992;BME280;5549;47.028;15.514;2023-06-10T04:35:00;96241.56;;;17.85;88.61
10992;BME280;5549;47.028;15.514;2023-06-10T04:37:28;96236.44;;;17.83;89.73
10992;BME280;5549;47.028;15.514;2023-06-10T04:39:56;96244.88;;;17.87;90.01
10992;BME280;5549;47.028;15.514;2023-06-10T04:42:26;96246.53;;;17.88;89.99
10992;BME280;5549;47.028;15.514;2023-06-10T04:44:56;96245.16;;;17.92;90.12
10992;BME280;5549;47.028;15.514;2023-06-10T04:47:23;96251.09;;;17.94;90.27
10992;BME280;5549;47.028;15.514;2023-06-10T04:49:51;96249.75;;;17.98;90.61
10992;BME280;5549;47.028;15.514;2023-06-10T04:52:21;96246.53;;;18.03;90.13
10992;BME280;5549;47.028;15.514;2023-06-10T04:54:48;96244.97;;;18.08;90.06
10992;BME280;5549;47.028;15.514;2023-06-10T04:57:18;96244.25;;;18.14;90.27
10992;BME280;5549;47.028;15.514;2023-06-10T04:59:47;96246.91;;;18.14;90.26
10992;BME280;5549;47.028;15.514;2023-06-10T05:02:17;96254.13;;;18.20;90.20
10992;BME280;5549;47.028;15.514;2023-06-10T05:04:47;96251.38;;;18.28;89.85
10992;BME280;5549;47.028;15.514;2023-06-10T05:07:14;96254.50;;;18.32;90.21
10992;BME280;5549;47.028;15.514;2023-06-10T05:09:44;96249.09;;;18.25;90.50
10992;BME280;5549;47.028;15.514;2023-06-10T05:12:12;96257.53;;;18.14;92.09
10992;BME280;5549;47.028;15.514;2023-06-10T05:14:39;96263.13;;;18.19;91.61
10992;BME280;5549;47.028;15.514;2023-06-10T05:17:10;96255.88;;;18.28;91.74
10992;BME280;5549;47.028;15.514;2023-06-10T05:19:41;96261.75;;;18.38;91.65
10992;BME280;5549;47.028;15.514;2023-06-10T05:22:09;96261.00;;;18.44;91.06
10992;BME280;5549;47.028;15.514;2023-06-10T05:24:39;96253.66;;;18.46;90.73
10992;BME280;5549;47.028;15.514;2023-06-10T05:27:07;96263.56;;;18.52;90.67
10992;BME280;5549;47.028;15.514;2023-06-10T05:29:38;96253.94;;;18.66;90.43
10992;BME280;5549;47.028;15.514;2023-06-10T05:32:10;96259.03;;;18.82;90.46
10992;BME280;5549;47.028;15.514;2023-06-10T05:34:38;96262.34;;;18.84;89.81
10992;BME280;5549;47.028;15.514;2023-06-10T05:37:08;96255.88;;;18.94;88.73
10992;BME280;5549;47.028;15.514;2023-06-10T05:39:36;96260.25;;;19.01;89.67
10992;BME280;5549;47.028;15.514;2023-06-10T05:42:06;96266.91;;;18.90;90.90
10992;BME280;5549;47.028;15.514;2023-06-10T05:44:34;96262.34;;;19.06;89.89
10992;BME280;5549;47.028;15.514;2023-06-10T05:47:05;96265.94;;;19.13;89.06
10992;BME280;5549;47.028;15.514;2023-06-10T05:49:34;96262.28;;;19.14;89.11
10992;BME280;5549;47.028;15.514;2023-06-10T05:52:01;96269.81;;;19.10;90.48
10992;BME280;5549;47.028;15.514;2023-06-10T05:54:29;96269.13;;;19.23;89.78
10992;BME280;5549;47.028;15.514;2023-06-10T05:56:59;96267.22;;;19.38;88.86
10992;BME280;5549;47.028;15.514;2023-06-10T05:59:26;96268.81;;;19.54;87.73
10992;BME280;5549;47.028;15.514;2023-06-10T06:01:54;96268.75;;;19.69;86.65
10992;BME280;5549;47.028;15.514;2023-06-10T06:04:24;96271.50;;;19.82;85.81
10992;BME280;5549;47.028;15.514;2023-06-10T06:06:53;96270.34;;;19.91;85.18
10992;BME280;5549;47.028;15.514;2023-06-10T06:09:22;96269.34;;;19.92;85.12
10992;BME280;5549;47.028;15.514;2023-06-10T06:11:52;96266.75;;;20.05;84.57
10992;BME280;5549;47.028;15.514;2023-06-10T06:14:20;96270.88;;;20.08;85.03
10992;BME280;5549;47.028;15.514;2023-06-10T06:16:47;96266.84;;;20.18;84.64
10992;BME280;5549;47.028;15.514;2023-06-10T06:19:17;96273.84;;;20.26;84.32
10992;BME280;5549;47.028;15.514;2023-06-10T06:21:44;96275.53;;;20.34;84.45
10992;BME280;5549;47.028;15.514;2023-06-10T06:24:15;96275.16;;;20.37;84.03
10992;BME280;5549;47.028;15.514;2023-06-10T06:26:45;96276.38;;;20.34;83.91
10992;BME280;5549;47.028;15.514;2023-06-10T06:29:13;96268.03;;;20.44;82.22
10992;BME280;5549;47.028;15.514;2023-06-10T06:31:43;96266.00;;;20.46;82.80
10992;BME280;5549;47.028;15.514;2023-06-10T06:34:11;96270.72;;;20.44;82.77
10992;BME280;5549;47.028;15.514;2023-06-10T06:36:38;96274.88;;;20.60;81.88
10992;BME280;5549;47.028;15.514;2023-06-10T06:39:08;96277.81;;;20.71;81.53
10992;BME280;5549;47.028;15.514;2023-06-10T06:41:37;96273.28;;;20.72;80.16
10992;BME280;5549;47.028;15.514;2023-06-10T06:44:05;96276.66;;;20.80;79.09
10992;BME280;5549;47.028;15.514;2023-06-10T06:46:35;96279.53;;;20.86;79.66
10992;BME280;5549;47.028;15.514;2023-06-10T06:49:02;96281.00;;;20.95;79.42
10992;BME280;5549;47.028;15.514;2023-06-10T06:51:30;96275.91;;;21.00;79.25
10992;BME280;5549;47.028;15.514;2023-06-10T06:53:59;96281.00;;;20.95;79.96
10992;BME280;5549;47.028;15.514;2023-06-10T06:56:27;96274.72;;;20.68;79.79
10992;BME280;5549;47.028;15.514;2023-06-10T06:58:56;96279.66;;;20.71;78.10
10992;BME280;5549;47.028;15.514;2023-06-10T07:01:25;96273.38;;;20.85;77.81
10992;BME280;5549;47.028;15.514;2023-06-10T07:03:53;96277.59;;;20.66;78.94
10992;BME280;5549;47.028;15.514;2023-06-10T07:06:22;96275.69;;;20.54;78.71
10992;BME280;5549;47.028;15.514;2023-06-10T07:08:51;96278.38;;;20.60;79.04
10992;BME280;5549;47.028;15.514;2023-06-10T07:11:20;96279.16;;;20.54;78.80
10992;BME280;5549;47.028;15.514;2023-06-10T07:13:51;96281.91;;;20.67;80.01
10992;BME280;5549;47.028;15.514;2023-06-10T07:16:22;96280.81;;;20.55;77.56
10992;BME280;5549;47.028;15.514;2023-06-10T07:18:53;96281.38;;;20.44;78.88
10992;BME280;5549;47.028;15.514;2023-06-10T07:21:22;96276.28;;;20.49;77.92
10992;BME280;5549;47.028;15.514;2023-06-10T07:23:52;96280.66;;;20.63;77.50
10992;BME280;5549;47.028;15.514;2023-06-10T07:26:21;96279.63;;;20.64;76.37
10992;BME280;5549;47.028;15.514;2023-06-10T07:28:53;96280.31;;;20.79;76.24
10992;BME280;5549;47.028;15.514;2023-06-10T07:31:23;96276.97;;;20.64;77.52
10992;BME280;5549;47.028;15.514;2023-06-10T07:33:51;96280.63;;;20.57;78.23
10992;BME280;5549;47.028;15.514;2023-06-10T07:36:19;96277.81;;;20.71;77.63
10992;BME280;5549;47.028;15.514;2023-06-10T07:38:48;96288.88;;;20.68;77.43
10992;BME280;5549;47.028;15.514;2023-06-10T07:41:18;96277.50;;;20.88;76.57
10992;BME280;5549;47.028;15.514;2023-06-10T07:43:46;96281.59;;;20.90;79.21
10992;BME280;5549;47.028;15.514;2023-06-10T07:46:16;96286.56;;;21.00;80.56
10992;BME280;5549;47.028;15.514;2023-06-10T07:48:47;96283.28;;;20.98;76.34
10992;BME280;5549;47.028;15.514;2023-06-10T07:51:16;96281.88;;;21.15;75.08
10992;BME280;5549;47.028;15.514;2023-06-10T07:53:43;96286.06;;;21.24;76.06
10992;BME280;5549;47.028;15.514;2023-06-10T07:56:11;96282.16;;;21.33;76.64
10992;BME280;5549;47.028;15.514;2023-06-10T07:58:39;96284.84;;;21.33;75.13
10992;BME280;5549;47.028;15.514;2023-06-10T08:01:09;96274.78;;;21.49;73.39
10992;BME280;5549;47.028;15.514;2023-06-10T08:03:38;96279.31;;;21.41;75.27
10992;BME280;5549;47.028;15.514;2023-06-10T08:06:09;96282.19;;;21.47;74.58
10992;BME280;5549;47.028;15.514;2023-06-10T08:08:38;96280.97;;;21.62;72.95
10992;BME280;5549;47.028;15.514;2023-06-10T08:11:10;96275.22;;;21.65;70.96
10992;BME280;5549;47.028;15.514;2023-06-10T08:13:38;96273.97;;;21.74;71.55
10992;BME280;5549;47.028;15.514;2023-06-10T08:16:06;96273.16;;;21.74;71.37
10992;BME280;5549;47.028;15.514;2023-06-10T08:18:36;96276.44;;;21.83;72.38
10992;BME280;5549;47.028;15.514;2023-06-10T08:21:06;96269.66;;;21.87;73.67
10992;BME280;5549;47.028;15.514;2023-06-10T08:23:37;96270.28;;;21.69;73.45
10992;BME280;5549;47.028;15.514;2023-06-10T08:26:07;96273.56;;;21.97;72.12
10992;BME280;5549;47.028;15.514;2023-06-10T08:28:37;96277.28;;;22.09;70.02
10992;BME280;5549;47.028;15.514;2023-06-10T08:31:07;96290.84;;;22.01;72.32
10992;BME280;5549;47.028;15.514;2023-06-10T08:33:34;96281.81;;;22.02;72.00
10992;BME280;5549;47.028;15.514;2023-06-10T08:36:02;96279.75;;;22.18;70.60
10992;BME280;5549;47.028;15.514;2023-06-10T08:38:30;96284.50;;;22.02;70.62
10992;BME280;5549;47.028;15.514;2023-06-10T08:40:59;96288.59;;;22.05;68.31
10992;BME280;5549;47.028;15.514;2023-06-10T08:43:34;96284.25;;;22.24;68.85
10992;BME280;5549;47.028;15.514;2023-06-10T08:46:04;96283.22;;;22.31;68.14
10992;BME280;5549;47.028;15.514;2023-06-10T08:48:37;96282.16;;;22.46;69.99
10992;BME280;5549;47.028;15.514;2023-06-10T08:51:06;96282.75;;;22.48;68.68
10992;BME280;5549;47.028;15.514;2023-06-10T08:53:41;96285.72;;;22.20;70.38
10992;BME280;5549;47.028;15.514;2023-06-10T08:56:18;96288.75;;;22.43;67.18
10992;BME280;5549;47.028;15.514;2023-06-10T08:58:47;96281.75;;;22.42;67.69
10992;BME280;5549;47.028;15.514;2023-06-10T09:01:17;96277.28;;;22.09;69.92
10992;BME280;5549;47.028;15.514;2023-06-10T09:03:45;96282.59;;;22.36;68.54
10992;BME280;5549;47.028;15.514;2023-06-10T09:06:15;96280.72;;;22.36;68.13
10992;BME280;5549;47.028;15.514;2023-06-10T09:08:43;96278.88;;;22.37;69.49
10992;BME280;5549;47.028;15.514;2023-06-10T09:11:13;96282.56;;;22.49;67.96
10992;BME280;5549;47.028;15.514;2023-06-10T09:13:44;96278.47;;;22.40;71.20
10992;BME280;5549;47.028;15.514;2023-06-10T09:16:12;96281.72;;;22.62;68.23
10992;BME280;5549;47.028;15.514;2023-06-10T09:18:40;96278.84;;;22.63;67.19
10992;BME280;5549;47.028;15.514;2023-06-10T09:21:07;96282.50;;;22.76;68.85
10992;BME280;5549;47.028;15.514;2023-06-10T09:23:36;96283.31;;;22.76;66.84
10992;BME280;5549;47.028;15.514;2023-06-10T09:26:09;96277.19;;;22.49;68.07
10992;BME280;5549;47.028;15.514;2023-06-10T09:28:37;96278.19;;;22.68;67.29
10992;BME280;5549;47.028;15.514;2023-06-10T09:31:11;96273.22;;;22.85;68.08
10992;BME280;5549;47.028;15.514;2023-06-10T09:33:40;96274.44;;;22.89;67.69
10992;BME280;5549;47.028;15.514;2023-06-10T09:36:08;96269.81;;;23.09;68.27
10992;BME280;5549;47.028;15.514;2023-06-10T09:38:35;96274.91;;;23.17;68.17
10992;BME280;5549;47.028;15.514;2023-06-10T09:41:04;96276.06;;;22.96;68.63
10992;BME280;5549;47.028;15.514;2023-06-10T09:43:43;96274.06;;;23.23;68.27
10992;BME280;5549;47.028;15.514;2023-06-10T09:46:19;96266.91;;;23.11;68.02
10992;BME280;5549;47.028;15.514;2023-06-10T09:48:47;96278.34;;;23.31;67.09
10992;BME280;5549;47.028;15.514;2023-06-10T09:51:16;96266.44;;;23.58;64.69
10992;BME280;5549;47.028;15.514;2023-06-10T09:53:48;96270.34;;;23.62;66.59
10992;BME280;5549;47.028;15.514;2023-06-10T09:56:17;96269.28;;;23.63;65.62
10992;BME280;5549;47.028;15.514;2023-06-10T09:58:47;96269.84;;;23.72;65.00
10992;BME280;5549;47.028;15.514;2023-06-10T10:01:18;96264.53;;;23.90;62.25
10992;BME280;5549;47.028;15.514;2023-06-10T10:03:47;96262.00;;;23.95;62.87
10992;BME280;5549;47.028;15.514;2023-06-10T10:06:15;96257.97;;;23.86;65.02
10992;BME280;5549;47.028;15.514;2023-06-10T10:08:43;96258.78;;;24.12;64.57
10992;BME280;5549;47.028;15.514;2023-06-10T10:11:11;96253.72;;;24.22;65.76
10992;BME280;5549;47.028;15.514;2023-06-10T10:13:39;96259.38;;;24.39;64.28
10992;BME280;5549;47.028;15.514;2023-06-10T10:16:11;96259.47;;;24.69;64.51
10992;BME280;5549;47.028;15.514;2023-06-10T10:18:46;96251.56;;;24.55;60.84
10992;BME280;5549;47.028;15.514;2023-06-10T10:21:23;96252.44;;;24.49;60.09
10992;BME280;5549;47.028;15.514;2023-06-10T10:23:58;96251.13;;;24.58;61.93
10992;BME280;5549;47.028;15.514;2023-06-10T10:26:29;96246.63;;;24.34;61.67
10992;BME280;5549;47.028;15.514;2023-06-10T10:29:08;96245.28;;;24.61;60.40
10992;BME280;5549;47.028;15.514;2023-06-10T10:31:38;96242.16;;;24.46;63.65
10992;BME280;5549;47.028;15.514;2023-06-10T10:34:15;96241.47;;;24.69;59.53
10992;BME280;5549;47.028;15.514;2023-06-10T10:36:43;96239.13;;;24.91;60.44
10992;BME280;5549;47.028;15.514;2023-06-10T10:39:12;96242.72;;;25.03;56.87
10992;BME280;5549;47.028;15.514;2023-06-10T10:41:41;96243.03;;;24.77;57.90
10992;BME280;5549;47.028;15.514;2023-06-10T10:44:09;96241.84;;;24.91;57.38
10992;BME280;5549;47.028;15.514;2023-06-10T10:46:45;96237.22;;;24.98;59.00
10992;BME280;5549;47.028;15.514;2023-06-10T10:49:19;96237.97;;;25.47;63.76
10992;BME280;5549;47.028;15.514;2023-06-10T10:51:56;96233.97;;;25.38;58.67
10992;BME280;5549;47.028;15.514;2023-06-10T10:54:32;96225.38;;;25.59;57.49
10992;BME280;5549;47.028;15.514;2023-06-10T10:57:13;96230.16;;;25.57;58.05
10992;BME280;5549;47.028;15.514;2023-06-10T10:59:47;96235.81;;;25.25;57.70
10992;BME280;5549;47.028;15.514;2023-06-10T11:02:31;96227.53;;;24.97;60.51
10992;BME280;5549;47.028;15.514;2023-06-10T11:05:02;96230.16;;;25.15;58.37
10992;BME280;5549;47.028;15.514;2023-06-10T11:07:34;96226.03;;;25.43;59.65
10992;BME280;5549;47.028;15.514;2023-06-10T11:10:07;96221.56;;;25.37;56.58
10992;BME280;5549;47.028;15.514;2023-06-10T11:12:53;96215.75;;;25.40;58.08
10992;BME280;5549;47.028;15.514;2023-06-10T11:15:24;96217.41;;;25.64;58.03
10992;BME280;5549;47.028;15.514;2023-06-10T11:18:13;96200.16;;;25.83;58.54
10992;BME280;5549;47.028;15.514;2023-06-10T11:20:53;96201.13;;;26.01;57.17
10992;BME280;5549;47.028;15.514;2023-06-10T11:23:42;96195.94;;;25.87;54.47
10992;BME280;5549;47.028;15.514;2023-06-10T11:26:16;96211.84;;;25.77;54.06
10992;BME280;5549;47.028;15.514;2023-06-10T11:29:06;96197.34;;;25.78;55.21
10992;BME280;5549;47.028;15.514;2023-06-10T11:31:49;96203.44;;;25.85;55.23
10992;BME280;5549;47.028;15.514;2023-06-10T11:34:22;96199.03;;;25.49;56.00
10992;BME280;5549;47.028;15.514;2023-06-10T11:36:55;96195.91;;;25.64;58.18
10992;BME280;5549;47.028;15.514;2023-06-10T11:39:26;96194.84;;;25.53;54.38
10992;BME280;5549;47.028;15.514;2023-06-10T11:41:56;96189.63;;;25.82;52.72
10992;BME280;5549;47.028;15.514;2023-06-10T11:44:28;96194.56;;;25.97;54.24
10992;BME280;5549;47.028;15.514;2023-06-10T11:46:58;96183.56;;;25.86;54.66
10992;BME280;5549;47.028;15.514;2023-06-10T11:49:25;96180.50;;;25.95;55.23
10992;BME280;5549;47.028;15.514;2023-06-10T11:51:56;96189.34;;;25.60;54.10
10992;BME280;5549;47.028;15.514;2023-06-10T11:54:24;96186.47;;;25.73;58.48
10992;BME280;5549;47.028;15.514;2023-06-10T11:56:58;96191.28;;;25.71;54.91
10992;BME280;5549;47.028;15.514;2023-06-10T11:59:27;96186.81;;;25.65;55.19
10992;BME280;5549;47.028;15.514;2023-06-10T12:01:55;96176.53;;;25.74;54.12
10992;BME280;5549;47.028;15.514;2023-06-10T12:04:23;96171.03;;;25.69;56.65
10992;BME280;5549;47.028;15.514;2023-06-10T12:06:53;96169.56;;;25.43;56.00
10992;BME280;5549;47.028;15.514;2023-06-10T12:09:27;96162.84;;;25.87;56.79
10992;BME280;5549;47.028;15.514;2023-06-10T12:11:59;96158.25;;;25.64;57.37
10992;BME280;5549;47.028;15.514;2023-06-10T12:14:56;96165.53;;;25.99;55.36
10992;BME280;5549;47.028;15.514;2023-06-10T12:17:36;96157.94;;;26.19;53.38
10992;BME280;5549;47.028;15.514;2023-06-10T12:20:06;96163.50;;;26.52;53.58
10992;BME280;5549;47.028;15.514;2023-06-10T12:22:39;96159.66;;;26.48;54.72
10992;BME280;5549;47.028;15.514;2023-06-10T12:25:10;96152.63;;;25.54;54.40
10992;BME280;5549;47.028;15.514;2023-06-10T12:27:40;96156.41;;;26.00;57.47
10992;BME280;5549;47.028;15.514;2023-06-10T12:30:09;96160.16;;;25.99;56.84
10992;BME280;5549;47.028;15.514;2023-06-10T12:32:39;96168.38;;;26.04;54.87
10992;BME280;5549;47.028;15.514;2023-06-10T12:35:17;96168.34;;;25.92;57.29
10992;BME280;5549;47.028;15.514;2023-06-10T12:37:56;96169.03;;;25.64;56.86
10992;BME280;5549;47.028;15.514;2023-06-10T12:40:31;96168.41;;;25.39;57.18
10992;BME280;5549;47.028;15.514;2023-06-10T12:42:59;96168.84;;;25.24;59.10
10992;BME280;5549;47.028;15.514;2023-06-10T12:45:28;96168.63;;;25.25;57.33
10992;BME280;5549;47.028;15.514;2023-06-10T12:48:07;96160.75;;;25.66;59.30
10992;BME280;5549;47.028;15.514;2023-06-10T12:50:40;96163.25;;;25.25;57.14
10992;BME280;5549;47.028;15.514;2023-06-10T12:53:10;96153.81;;;25.46;57.47
10992;BME280;5549;47.028;15.514;2023-06-10T12:55:39;96149.50;;;25.57;56.79
10992;BME280;5549;47.028;15.514;2023-06-10T12:58:09;96149.16;;;25.65;55.23
10992;BME280;5549;47.028;15.514;2023-06-10T13:00:37;96143.66;;;25.60;55.87
10992;BME280;5549;47.028;15.514;2023-06-10T13:03:07;96141.19;;;25.47;56.53
10992;BME280;5549;47.028;15.514;2023-06-10T13:05:36;96142.78;;;25.24;56.98
10992;BME280;5549;47.028;15.514;2023-06-10T13:08:05;96135.78;;;25.23;56.35
10992;BME280;5549;47.028;15.514;2023-06-10T13:10:36;96141.59;;;25.20;55.62
10992;BME280;5549;47.028;15.514;2023-06-10T13:13:08;96146.25;;;25.02;56.06
10992;BME280;5549;47.028;15.514;2023-06-10T13:15:36;96144.06;;;24.92;56.90